Time;durP1;ratioP1;P1;durP2;ratioP2;P2;SDS_P1;SDS_P2;PMS_P1;PMS_P2;Temp;Humidity;BMP_temperature;BMP_pressure;BME280_temperature;BME280_humidity;BME280_pressure;Samples;Min_cycle;Max_cycle;Signal;HPM_P1;HPM_P2
2022/11/11 00:00:35;;;;;;;25.55;20.80;;;;;;;3.68;88.54;101753.70;3563533;78;21560;-76
2022/11/11 00:05:44;;;;;;;23.42;18.67;;;;;;;3.69;88.52;101755.08;3542751;78;21208;-77
2022/11/11 00:11:04;;;;;;;22.20;18.32;;;;;;;3.66;88.23;101754.89;3507994;78;20971;-77
2022/11/11 00:16:18;;;;;;;22.17;17.80;;;;;;;3.63;88.47;101758.55;3571195;78;21111;-76
2022/11/11 00:26:55;;;;;;;23.10;19.98;;;;;;;3.70;88.93;101756.88;3558254;78;21078;-77
2022/11/11 00:32:22;;;;;;;24.10;20.37;;;;;;;3.79;88.87;101772.87;3521588;79;20985;-76
2022/11/11 00:37:33;;;;;;;19.75;16.77;;;;;;;3.81;88.97;101778.98;3515826;78;20916;-77
2022/11/11 00:42:42;;;;;;;26.48;19.60;;;;;;;3.75;88.51;101773.45;3553272;78;20987;-76
2022/11/11 00:53:23;;;;;;;;;;;;;;;3.65;88.86;101774.99;3542920;79;21515;-77
2022/11/11 00:58:32;;;;;;;21.65;18.07;;;;;;;3.62;88.86;101770.93;3575988;77;20146;-77
2022/11/11 01:03:42;;;;;;;25.62;18.75;;;;;;;3.55;88.48;101771.34;3550255;78;22132;-76
2022/11/11 01:08:52;;;;;;;25.15;18.48;;;;;;;3.48;88.34;101775.62;3549718;78;21073;-76
2022/11/11 01:14:01;;;;;;;20.80;17.30;;;;;;;3.39;88.19;101770.38;3553459;78;20927;-77
2022/11/11 01:19:11;;;;;;;25.43;18.52;;;;;;;3.31;88.24;101769.02;3571693;78;20976;-76
2022/11/11 01:24:20;;;;;;;21.37;17.25;;;;;;;3.26;88.39;101775.55;3553124;78;21643;-76
2022/11/11 01:29:30;;;;;;;26.12;19.23;;;;;;;3.21;88.08;101772.67;3525379;77;20943;-76
2022/11/11 01:34:40;;;;;;;22.32;17.27;;;;;;;3.24;88.56;101774.56;3538233;77;21416;-76
2022/11/11 01:39:50;;;;;;;22.82;18.17;;;;;;;3.31;88.63;101761.31;3509505;78;21618;-78
2022/11/11 01:44:59;;;;;;;26.23;17.87;;;;;;;3.37;88.79;101766.83;3546418;78;20951;-78
2022/11/11 01:50:09;;;;;;;26.60;20.25;;;;;;;3.48;88.96;101766.21;3554300;78;20974;-76
2022/11/11 01:55:22;;;;;;;20.35;18.15;;;;;;;3.57;88.91;101767.19;3553631;78;21473;-75
2022/11/11 02:00:32;;;;;;;27.87;20.40;;;;;;;3.66;89.10;101758.74;3558738;79;20979;-75
2022/11/11 02:05:42;;;;;;;28.45;21.52;;;;;;;3.77;89.24;101756.45;3530288;78;21248;-74
2022/11/11 02:10:52;;;;;;;36.38;23.07;;;;;;;3.87;89.31;101748.00;3540599;79;20951;-75
2022/11/11 02:16:02;;;;;;;23.35;20.02;;;;;;;3.94;89.43;101734.71;3522920;79;20983;-74
2022/11/11 02:21:23;;;;;;;26.42;21.30;;;;;;;4.00;89.53;101733.78;3549853;78;21231;-75
2022/11/11 02:26:35;;;;;;;25.35;20.92;;;;;;;4.06;89.59;101736.73;3590657;78;20946;-75
2022/11/11 02:31:45;;;;;;;27.85;22.17;;;;;;;4.11;89.69;101731.84;3512546;78;20978;-74
2022/11/11 02:36:54;;;;;;;30.45;22.25;;;;;;;4.17;89.96;101739.54;3535452;77;21587;-75
2022/11/11 02:42:09;;;;;;;28.73;23.47;;;;;;;4.24;89.90;101741.17;3528061;78;21018;-75
2022/11/11 02:47:15;;;;;;;31.82;23.25;;;;;;;4.26;89.95;101747.33;3553455;78;20963;-75
2022/11/11 02:52:25;;;;;;;31.40;22.48;;;;;;;4.25;89.92;101748.11;3556602;77;20939;-76
2022/11/11 02:57:35;;;;;;;24.65;21.02;;;;;;;4.19;89.85;101757.25;3515865;78;21041;-75
2022/11/11 03:02:45;;;;;;;31.80;22.15;;;;;;;4.12;89.80;101765.81;3540580;77;21084;-75
2022/11/11 03:07:55;;;;;;;24.92;20.60;;;;;;;4.04;89.77;101769.59;3539651;79;21449;-76
2022/11/11 03:13:04;;;;;;;30.68;20.65;;;;;;;3.95;89.79;101763.48;3556606;78;21014;-75
2022/11/11 03:18:14;;;;;;;25.40;19.37;;;;;;;3.84;89.59;101772.25;3524186;78;21109;-75
2022/11/11 03:23:23;;;;;;;34.05;23.95;;;;;;;3.75;89.47;101781.17;3572021;78;20989;-75
2022/11/11 03:28:33;;;;;;;33.53;22.62;;;;;;;3.70;89.89;101785.55;3548060;78;20977;-75
2022/11/11 03:33:42;;;;;;;34.08;22.77;;;;;;;3.65;89.80;101786.56;3548906;78;20955;-75
2022/11/11 03:38:53;;;;;;;30.35;20.15;;;;;;;3.66;90.30;101775.46;3541501;78;21224;-76
2022/11/11 03:44:02;;;;;;;28.45;21.17;;;;;;;3.68;90.39;101772.58;3559233;78;21267;-75
2022/11/11 03:49:12;;;;;;;31.15;22.73;;;;;;;3.70;90.25;101780.40;3568058;79;21476;-75
2022/11/11 03:54:21;;;;;;;27.82;21.80;;;;;;;3.71;90.46;101777.92;3556956;77;20942;-76
2022/11/11 03:59:31;;;;;;;30.65;22.80;;;;;;;3.76;90.41;101780.39;3489870;78;21527;-75
2022/11/11 04:10:22;;;;;;;28.92;21.37;;;;;;;3.85;90.68;101793.34;3484424;79;21392;-76
2022/11/11 04:26:28;;;;;;;;;;;;;;;3.92;90.85;101804.09;3491241;79;21064;-76
2022/11/11 04:32:34;;;;;;;22.05;18.42;;;;;;;3.95;90.86;101802.09;3432116;80;20129;-76
2022/11/11 04:36:52;;;;;;;25.12;19.40;;;;;;;3.98;91.02;101821.58;3459996;80;20956;-76
2022/11/11 04:42:02;;;;;;;32.73;22.80;;;;;;;4.00;90.89;101829.00;3514574;79;22034;-76
2022/11/11 04:47:11;;;;;;;31.85;22.95;;;;;;;4.07;90.93;101826.00;3513598;79;21674;-76
2022/11/11 04:52:27;;;;;;;32.67;22.82;;;;;;;4.14;91.13;101820.43;3582267;77;20947;-76
2022/11/11 04:57:41;;;;;;;32.42;22.25;;;;;;;4.20;91.24;101814.76;3544714;78;20997;-76
2022/11/11 05:03:14;;;;;;;27.13;21.07;;;;;;;4.24;91.23;101811.97;3550823;78;20936;-76
2022/11/11 05:30:21;;;;;;;30.80;22.65;;;;;;;4.55;91.85;101824.59;3561800;77;21041;-76
2022/11/11 05:35:30;;;;;;;28.38;22.48;;;;;;;4.63;92.05;101816.42;3503740;78;21028;-76
2022/11/11 05:40:40;;;;;;;26.60;21.77;;;;;;;4.72;92.15;101807.95;3563293;78;20942;-76
2022/11/11 05:45:49;;;;;;;30.92;21.33;;;;;;;4.82;92.29;101801.24;3547212;78;20935;-76
2022/11/11 05:50:59;;;;;;;26.68;21.25;;;;;;;4.91;92.58;101802.17;3566924;78;20939;-76
2022/11/11 05:56:08;;;;;;;29.70;23.60;;;;;;;4.99;92.40;101804.80;3576004;78;20990;-76
2022/11/11 06:01:18;;;;;;;28.98;20.52;;;;;;;5.06;92.61;101812.09;3547855;78;20950;-76
2022/11/11 06:06:28;;;;;;;28.67;21.55;;;;;;;5.14;92.78;101818.95;3535009;78;21041;-76
2022/11/11 06:11:40;;;;;;;24.55;19.10;;;;;;;5.23;92.93;101822.05;3524569;78;21034;-77
2022/11/11 06:16:50;;;;;;;28.62;20.12;;;;;;;5.30;93.03;101812.56;3521906;78;20956;-78
2022/11/11 06:22:02;;;;;;;27.40;19.50;;;;;;;5.39;93.16;101808.32;3536880;78;20980;-77
2022/11/11 06:27:11;;;;;;;24.65;18.48;;;;;;;5.52;93.37;101808.59;3566778;78;20975;-78
2022/11/11 06:32:21;;;;;;;26.33;19.15;;;;;;;5.61;93.42;101805.22;3562128;78;21244;-77
2022/11/11 06:37:31;;;;;;;23.67;17.52;;;;;;;5.73;93.61;101812.34;3539579;78;21397;-77
2022/11/11 06:42:44;;;;;;;25.70;18.92;;;;;;;5.85;93.81;101812.13;3546671;79;21537;-77
2022/11/11 06:48:12;;;;;;;28.07;19.55;;;;;;;6.08;93.70;101815.96;3510915;79;21107;-76
2022/11/11 06:53:14;;;;;;;25.08;18.12;;;;;;;6.08;93.70;101815.96;3548235;78;21021;-77
2022/11/11 06:58:24;;;;;;;20.37;16.45;;;;;;;6.19;93.86;101815.62;3582430;77;21373;-77
2022/11/11 07:03:34;;;;;;;24.25;18.20;;;;;;;6.26;93.89;101812.16;3527142;78;22391;-77
2022/11/11 07:08:44;;;;;;;28.25;16.82;;;;;;;6.34;93.91;101816.42;3530164;78;21007;-77
2022/11/11 07:13:53;;;;;;;20.70;16.27;;;;;;;6.44;94.29;101816.10;3503001;78;20957;-77
2022/11/11 07:19:08;;;;;;;24.30;15.85;;;;;;;6.54;94.26;101821.73;3541251;77;21042;-78
2022/11/11 07:24:18;;;;;;;22.42;16.17;;;;;;;6.61;94.27;101806.61;3524561;79;21706;-77
2022/11/11 07:29:28;;;;;;;24.87;15.78;;;;;;;6.72;94.19;101811.44;3543267;77;21193;-77
2022/11/11 07:34:37;;;;;;;22.40;16.00;;;;;;;6.79;94.35;101798.89;3554244;77;20971;-77
2022/11/11 07:39:47;;;;;;;24.85;15.95;;;;;;;6.84;94.31;101801.30;3517878;77;21410;-77
2022/11/11 07:44:56;;;;;;;22.27;16.93;;;;;;;6.93;94.33;101789.23;3526593;78;21064;-77
2022/11/11 07:50:07;;;;;;;22.52;14.38;;;;;;;7.04;94.27;101782.87;3516783;79;20978;-78
2022/11/11 07:55:17;;;;;;;20.75;15.28;;;;;;;7.13;94.28;101777.27;3502990;77;21594;-79
2022/11/11 08:00:27;;;;;;;19.48;14.95;;;;;;;7.21;94.36;101778.53;3502056;77;20997;-78
2022/11/11 08:05:47;;;;;;;21.45;15.25;;;;;;;7.43;94.05;101788.59;3522759;77;20979;-79
2022/11/11 08:10:54;;;;;;;25.63;15.30;;;;;;;7.43;94.05;101788.59;3537624;78;21457;-79
2022/11/11 08:16:05;;;;;;;21.70;14.60;;;;;;;7.56;94.28;101789.63;3538612;78;21001;-79
2022/11/11 08:21:15;;;;;;;20.12;14.87;;;;;;;7.88;93.79;101823.00;3530844;78;21520;-77
2022/11/11 08:26:35;;;;;;;22.85;16.17;;;;;;;7.88;93.79;101823.00;3505170;78;21476;-78
2022/11/11 08:31:45;;;;;;;25.45;15.85;;;;;;;7.96;93.93;101825.12;3571798;77;21014;-79
2022/11/11 08:36:55;;;;;;;21.17;15.32;;;;;;;8.26;93.68;101819.52;3508580;77;21013;-78
2022/11/11 08:42:17;;;;;;;19.52;14.50;;;;;;;8.26;93.68;101819.52;3527196;78;21572;-79
2022/11/11 08:47:27;;;;;;;19.23;14.13;;;;;;;8.47;93.40;101834.29;3552720;77;20967;-77
2022/11/11 08:52:38;;;;;;;20.65;14.18;;;;;;;8.65;93.27;101833.77;3556146;77;21006;-78
2022/11/11 08:57:47;;;;;;;24.43;14.45;;;;;;;8.89;93.02;101826.55;3505318;78;20994;-78
2022/11/11 09:03:07;;;;;;;17.52;14.35;;;;;;;9.11;92.78;101820.55;3470056;79;22183;-78
2022/11/11 09:08:17;;;;;;;18.80;13.55;;;;;;;9.22;92.62;101819.69;3538362;77;21465;-77
2022/11/11 09:13:28;;;;;;;19.75;16.17;;;;;;;9.32;92.13;101821.83;3520991;77;21037;-77
2022/11/11 09:18:42;;;;;;;20.05;13.50;;;;;;;9.46;92.12;101819.37;3537453;77;21120;-77
2022/11/11 09:23:55;;;;;;;18.52;14.18;;;;;;;9.62;91.85;101813.45;3524533;78;21044;-77
2022/11/11 09:29:05;;;;;;;17.80;13.60;;;;;;;9.70;91.63;101818.53;3521895;77;21057;-77
2022/11/11 09:34:15;;;;;;;17.00;12.95;;;;;;;9.76;91.54;101813.55;3548285;78;20966;-77
2022/11/11 09:39:25;;;;;;;20.75;12.58;;;;;;;9.86;91.72;101807.89;3498280;79;21017;-77
2022/11/11 09:45:15;;;;;;;21.77;11.97;;;;;;;9.98;91.49;101810.07;3534980;78;20993;-77
2022/11/11 09:50:32;;;;;;;17.17;12.03;;;;;;;10.11;91.45;101806.20;3554507;78;20930;-77
2022/11/11 09:56:07;;;;;;;18.57;11.10;;;;;;;10.14;91.19;101811.52;3548756;78;21010;-77
2022/11/11 10:01:28;;;;;;;12.47;10.23;;;;;;;10.15;90.95;101801.58;3558807;78;21645;-77
2022/11/11 10:06:38;;;;;;;17.32;11.20;;;;;;;10.17;91.12;101792.53;3505317;78;21005;-76
2022/11/11 10:12:12;;;;;;;17.42;10.78;;;;;;;10.25;91.25;101784.19;3506131;77;21658;-76
2022/11/11 10:17:48;;;;;;;17.77;9.25;;;;;;;10.34;90.90;101782.75;3551897;78;20954;-77
2022/11/11 10:23:15;;;;;;;15.28;10.30;;;;;;;10.33;90.52;101776.68;3563277;78;20942;-77
2022/11/11 10:28:31;;;;;;;18.65;10.50;;;;;;;10.30;90.94;101770.03;3541867;78;20969;-76
2022/11/11 10:34:03;;;;;;;15.60;10.30;;;;;;;10.25;90.60;101771.19;3575781;78;21596;-77
2022/11/11 10:39:27;;;;;;;22.58;10.13;;;;;;;10.24;90.83;101765.94;3539044;78;20950;-76
2022/11/11 10:44:40;;;;;;;14.87;9.08;;;;;;;10.29;90.74;101766.56;3555527;78;21555;-77
2022/11/11 10:50:10;;;;;;;13.88;9.08;;;;;;;10.39;90.26;101774.31;3537684;79;20931;-77
2022/11/11 10:55:33;;;;;;;14.00;8.18;;;;;;;10.56;89.72;101774.88;3585302;78;21113;-76
2022/11/11 11:00:47;;;;;;;15.28;10.18;;;;;;;10.71;89.46;101773.63;3568948;77;21024;-77
2022/11/11 11:06:19;;;;;;;15.20;8.60;;;;;;;10.79;89.25;101774.77;3549692;78;20986;-77
2022/11/11 11:11:34;;;;;;;13.08;8.43;;;;;;;10.86;88.49;101762.43;3581289;78;21214;-76
2022/11/11 11:16:50;;;;;;;13.45;8.30;;;;;;;11.04;87.98;101748.70;3556144;77;21037;-76
2022/11/11 11:22:02;;;;;;;13.55;9.45;;;;;;;11.08;87.86;101760.09;3556955;77;20955;-77
2022/11/11 11:27:20;;;;;;;12.10;7.80;;;;;;;11.03;87.90;101757.33;3533901;78;20955;-76
2022/11/11 11:32:33;;;;;;;14.73;8.57;;;;;;;10.94;87.89;101759.64;3542083;79;21440;-76
2022/11/11 11:37:50;;;;;;;14.63;7.53;;;;;;;10.87;87.61;101740.77;3573824;78;21010;-76
2022/11/11 11:43:00;;;;;;;13.88;8.03;;;;;;;10.87;87.67;101734.26;3513257;77;21425;-77
2022/11/11 11:48:31;;;;;;;8.20;7.37;;;;;;;10.88;87.20;101730.84;3505803;78;20941;-77
2022/11/11 11:54:21;;;;;;;12.58;9.20;;;;;;;10.91;87.37;101737.45;3449969;81;21029;-76
2022/11/11 11:59:52;;;;;;;13.45;8.00;;;;;;;10.91;87.14;101736.15;3456870;80;21018;-76
2022/11/11 12:05:22;;;;;;;15.68;8.85;;;;;;;10.90;87.00;101734.37;3443230;80;21053;-77
2022/11/11 12:11:24;;;;;;;15.72;9.08;;;;;;;10.89;87.01;101737.79;3462505;80;20956;-78
2022/11/11 12:16:46;;;;;;;13.03;9.48;;;;;;;10.90;86.96;101727.86;3451683;80;21003;-77
2022/11/11 12:22:03;;;;;;;13.80;7.67;;;;;;;10.93;86.61;101717.95;3451883;80;21125;-77
2022/11/11 12:27:19;;;;;;;20.48;9.28;;;;;;;10.99;86.76;101719.04;3441202;80;20946;-77
2022/11/11 12:33:04;;;;;;;16.42;8.93;;;;;;;11.01;86.56;101721.27;3458846;80;21502;-77
2022/11/11 12:38:55;;;;;;;13.13;7.97;;;;;;;10.99;86.38;101729.88;3474146;80;21291;-77
2022/11/11 12:44:16;;;;;;;9.98;6.40;;;;;;;10.98;86.60;101732.91;3425768;81;20962;-77
2022/11/11 12:50:12;;;;;;;15.23;9.25;;;;;;;10.99;86.00;101742.45;3414443;80;21244;-77
2022/11/11 12:55:47;;;;;;;11.43;7.25;;;;;;;10.96;86.20;101728.47;3450267;81;20954;-78
2022/11/11 13:01:52;;;;;;;13.50;7.47;;;;;;;10.93;85.99;101737.08;3440121;81;21003;-78
2022/11/11 13:07:33;;;;;;;13.18;8.33;;;;;;;10.88;86.13;101749.05;3449249;81;21006;-77
2022/11/11 13:13:09;;;;;;;12.05;7.80;;;;;;;10.81;86.02;101744.48;3455660;81;20982;-77
2022/11/11 13:18:29;;;;;;;11.50;7.70;;;;;;;10.75;86.11;101733.86;3264002;84;20978;-77
2022/11/11 13:23:39;;;;;;;11.53;7.22;;;;;;;10.68;86.06;101727.17;3273649;84;21027;-77
2022/11/11 13:28:56;;;;;;;20.30;9.08;;;;;;;10.64;86.10;101726.61;3243395;85;21042;-77
2022/11/11 13:34:35;;;;;;;12.37;7.45;;;;;;;10.61;86.33;101712.63;3215670;86;21162;-76
2022/11/11 13:39:57;;;;;;;15.65;8.18;;;;;;;10.58;86.33;101713.39;3141577;87;21133;-75
2022/11/11 13:45:11;;;;;;;12.33;8.00;;;;;;;10.56;86.41;101715.06;3239289;86;20994;-76
2022/11/11 13:50:37;;;;;;;9.28;7.15;;;;;;;10.56;86.31;101708.98;3221463;86;21004;-77
2022/11/11 13:56:27;;;;;;;13.53;7.10;;;;;;;10.54;86.40;101708.94;3248371;85;21072;-77
2022/11/11 14:01:39;;;;;;;15.88;8.10;;;;;;;10.50;86.40;101712.28;3266268;84;21371;-77
2022/11/11 14:06:52;;;;;;;11.57;7.05;;;;;;;10.46;86.49;101707.78;3271975;84;21045;-77
2022/11/11 14:12:24;;;;;;;14.03;9.50;;;;;;;10.42;86.49;101698.13;3291324;85;21095;-77
2022/11/11 14:17:38;;;;;;;11.45;6.25;;;;;;;10.36;86.41;101713.53;3291545;83;21136;-77
2022/11/11 14:22:47;;;;;;;10.63;6.35;;;;;;;10.30;85.99;101712.84;3332172;83;21105;-77
2022/11/11 14:27:57;;;;;;;12.40;6.05;;;;;;;10.27;85.88;101714.94;3302255;83;21734;-77
2022/11/11 14:33:17;;;;;;;10.38;7.00;;;;;;;10.25;85.67;101717.91;3397825;80;21041;-77
2022/11/11 14:38:44;;;;;;;9.78;7.72;;;;;;;10.24;85.40;101713.95;3464506;80;21009;-77
2022/11/11 14:43:54;;;;;;;13.20;8.85;;;;;;;10.21;85.13;101726.44;3442319;81;20987;-77
2022/11/11 14:49:04;;;;;;;12.85;8.08;;;;;;;10.19;85.08;101731.09;3409432;81;21073;-77
2022/11/11 14:54:28;;;;;;;15.45;9.28;;;;;;;10.18;85.14;101740.62;3429960;80;21058;-77
2022/11/11 14:59:39;;;;;;;11.95;8.35;;;;;;;10.15;85.16;101735.30;3445640;81;21030;-77
2022/11/11 15:04:49;;;;;;;11.33;8.43;;;;;;;10.14;85.18;101746.55;3438521;80;20943;-77
2022/11/11 15:10:22;;;;;;;16.82;11.35;;;;;;;10.11;85.26;101749.03;3429625;80;21010;-76
2022/11/11 15:15:55;;;;;;;16.80;11.08;;;;;;;10.08;85.04;101742.42;3264868;85;21350;-77
2022/11/11 15:21:18;;;;;;;15.18;10.45;;;;;;;10.05;85.21;101747.50;3247917;85;21015;-77
2022/11/11 15:26:48;;;;;;;15.90;11.80;;;;;;;10.03;85.17;101741.36;3161393;88;21023;-76
2022/11/11 15:32:09;;;;;;;14.85;10.48;;;;;;;10.01;85.22;101747.80;3154098;87;21300;-77
2022/11/11 15:37:22;;;;;;;18.70;11.83;;;;;;;9.99;85.33;101760.28;3155185;88;21537;-77
2022/11/11 15:42:42;;;;;;;18.48;10.93;;;;;;;9.96;85.37;101762.34;3117602;88;22064;-77
2022/11/11 15:47:53;;;;;;;18.35;11.80;;;;;;;9.93;85.41;101755.33;3225730;83;21015;-77
2022/11/11 15:53:03;;;;;;;14.40;10.28;;;;;;;9.90;85.35;101776.42;3267585;83;21651;-77
2022/11/11 15:58:29;;;;;;;12.13;10.90;;;;;;;9.83;85.34;101771.41;3290210;83;21652;-77
2022/11/11 16:03:43;;;;;;;15.85;10.80;;;;;;;9.79;85.49;101777.32;3379764;80;20962;-77
2022/11/11 16:08:55;;;;;;;15.18;11.60;;;;;;;9.73;85.53;101787.50;3413715;80;20989;-78
2022/11/11 16:14:09;;;;;;;16.23;11.03;;;;;;;9.67;85.60;101782.93;3447997;81;21085;-77
2022/11/11 16:19:30;;;;;;;14.20;10.60;;;;;;;9.59;85.61;101781.77;3433775;81;20982;-77
2022/11/11 16:24:43;;;;;;;15.70;11.48;;;;;;;9.53;85.81;101788.02;3421205;81;21073;-77
2022/11/11 16:29:53;;;;;;;17.15;12.07;;;;;;;9.49;85.96;101776.63;3421452;81;20998;-77
2022/11/11 16:35:20;;;;;;;16.93;11.57;;;;;;;9.49;86.11;101772.73;3445216;81;20958;-77
2022/11/11 16:40:42;;;;;;;14.20;10.08;;;;;;;9.52;86.19;101768.97;3443600;81;21025;-77
2022/11/11 16:46:15;;;;;;;14.13;10.53;;;;;;;9.54;86.26;101772.50;3456777;80;20989;-77
2022/11/11 16:51:43;;;;;;;15.30;10.60;;;;;;;9.58;86.30;101763.53;3447306;82;21046;-77
2022/11/11 16:56:59;;;;;;;15.15;9.90;;;;;;;9.61;86.33;101761.06;3445501;81;22116;-77
2022/11/11 17:02:17;;;;;;;18.07;11.38;;;;;;;9.64;86.38;101757.27;3445319;81;22181;-78
2022/11/11 17:07:35;;;;;;;19.77;10.93;;;;;;;9.67;86.40;101774.27;3446225;81;21138;-77
2022/11/11 17:12:46;;;;;;;17.55;12.37;;;;;;;9.71;86.44;101769.64;3394154;80;21102;-76
2022/11/11 17:17:56;;;;;;;21.20;12.13;;;;;;;9.73;86.50;101786.20;3440308;80;20983;-77
2022/11/11 17:23:05;;;;;;;19.70;12.75;;;;;;;9.75;86.52;101794.92;3441105;81;20960;-77
2022/11/11 17:28:18;;;;;;;16.23;10.30;;;;;;;9.77;86.52;101793.69;3413042;81;20978;-77
2022/11/11 17:33:28;;;;;;;15.60;10.68;;;;;;;9.78;86.52;101804.11;3417236;80;20998;-77
2022/11/11 17:38:39;;;;;;;20.02;14.07;;;;;;;9.80;86.55;101808.06;3359464;81;39926;-77
2022/11/11 17:43:50;;;;;;;14.60;10.70;;;;;;;9.99;86.00;101803.16;3421715;81;20983;-77
2022/11/11 17:49:00;;;;;;;14.70;10.80;;;;;;;9.93;86.12;101795.59;3450942;81;21034;-77
2022/11/11 17:54:10;;;;;;;21.10;11.30;;;;;;;9.91;86.19;101795.96;3412643;81;21029;-78
2022/11/11 17:59:19;;;;;;;17.87;11.48;;;;;;;9.89;86.29;101795.02;3475700;80;20963;-77
2022/11/11 18:04:29;;;;;;;16.48;12.15;;;;;;;9.89;86.33;101799.31;3442313;82;20982;-77
2022/11/11 18:09:38;;;;;;;19.27;11.90;;;;;;;9.88;86.39;101789.34;3427849;82;21046;-77
2022/11/11 18:14:48;;;;;;;16.07;11.18;;;;;;;9.87;86.41;101794.09;3435951;81;20994;-77
2022/11/11 18:19:58;;;;;;;17.52;12.03;;;;;;;9.88;86.40;101791.94;3422109;81;21027;-77
2022/11/11 18:25:08;;;;;;;21.25;13.22;;;;;;;9.87;86.37;101790.19;3450827;80;21057;-77
2022/11/11 18:30:18;;;;;;;17.20;12.63;;;;;;;9.86;86.40;101775.42;3462536;80;21417;-77
2022/11/11 18:35:28;;;;;;;19.12;13.78;;;;;;;9.85;86.39;101777.53;3442066;81;20959;-77
2022/11/11 18:40:37;;;;;;;15.90;12.35;;;;;;;9.84;86.44;101774.48;3413190;82;20991;-77
2022/11/11 18:45:49;;;;;;;18.85;13.45;;;;;;;9.84;86.49;101775.78;3382401;82;20959;-77
2022/11/11 18:50:59;;;;;;;20.32;13.08;;;;;;;9.84;86.55;101784.00;3411213;82;20968;-77
2022/11/11 18:56:15;;;;;;;26.90;16.32;;;;;;;9.84;86.60;101785.30;3463037;80;21457;-77
2022/11/11 19:01:28;;;;;;;27.52;16.67;;;;;;;9.83;86.62;101797.38;3457607;81;21030;-77
2022/11/11 19:06:39;;;;;;;25.20;18.15;;;;;;;9.82;86.72;101800.82;3431250;80;20983;-77
2022/11/11 19:11:48;;;;;;;22.13;15.20;;;;;;;9.82;86.83;101802.12;3438203;81;20947;-76
2022/11/11 19:17:00;;;;;;;19.67;12.60;;;;;;;9.81;86.95;101806.83;3432705;82;21079;-77
2022/11/11 19:22:14;;;;;;;18.98;13.85;;;;;;;9.82;86.99;101811.21;3404981;80;21003;-76
2022/11/11 19:27:23;;;;;;;18.50;13.25;;;;;;;9.82;87.09;101831.98;3441326;80;21042;-77
2022/11/11 19:32:33;;;;;;;19.98;14.90;;;;;;;9.80;87.18;101832.35;3423379;81;21054;-77
2022/11/11 19:37:43;;;;;;;19.35;13.75;;;;;;;9.80;87.24;101834.04;3378746;82;21498;-76
2022/11/11 19:42:52;;;;;;;18.35;12.98;;;;;;;9.78;87.46;101843.48;3371397;82;21014;-77
2022/11/11 19:48:02;;;;;;;19.27;13.22;;;;;;;9.76;87.63;101853.81;3368496;83;21026;-77
2022/11/11 19:53:13;;;;;;;19.90;14.20;;;;;;;9.73;87.92;101868.00;3389639;82;20970;-77
2022/11/11 19:58:23;;;;;;;18.87;13.50;;;;;;;9.70;88.14;101887.35;3377056;83;21434;-77
2022/11/11 20:03:34;;;;;;;18.25;13.25;;;;;;;9.66;88.46;101873.78;3400060;82;21627;-76
2022/11/11 20:08:43;;;;;;;20.77;14.53;;;;;;;9.64;88.65;101878.00;3364625;82;21046;-76
2022/11/11 20:13:54;;;;;;;19.17;15.68;;;;;;;9.61;88.95;101876.61;3420626;82;21043;-77
2022/11/11 20:19:04;;;;;;;17.85;15.95;;;;;;;9.58;89.05;101875.18;3335235;83;21757;-77
2022/11/11 20:24:13;;;;;;;21.40;17.07;;;;;;;9.53;89.16;101873.30;3416921;82;21014;-77
2022/11/11 20:29:25;;;;;;;23.80;18.10;;;;;;;9.49;89.22;101862.30;3404653;82;21434;-77
2022/11/11 20:34:34;;;;;;;24.90;17.80;;;;;;;9.47;89.44;101854.86;3404225;82;21098;-77
2022/11/11 20:39:44;;;;;;;25.20;17.70;;;;;;;9.47;89.49;101867.84;3360001;82;22048;-76
2022/11/11 20:44:53;;;;;;;25.85;16.62;;;;;;;9.48;89.56;101874.83;3428867;80;21041;-77
2022/11/11 20:50:04;;;;;;;20.82;15.23;;;;;;;9.47;89.55;101880.83;3445935;82;20947;-77
2022/11/11 20:55:13;;;;;;;24.65;16.37;;;;;;;9.48;89.54;101878.72;3415551;82;21038;-77
2022/11/11 21:00:25;;;;;;;16.75;14.18;;;;;;;9.49;89.65;101888.26;3380880;83;21647;-77
2022/11/11 21:05:34;;;;;;;19.12;15.32;;;;;;;9.49;89.63;101884.36;3368178;82;20978;-77
2022/11/11 21:10:44;;;;;;;25.72;17.05;;;;;;;9.50;89.62;101884.85;3372586;83;21552;-77
2022/11/11 21:16:06;;;;;;;18.02;15.93;;;;;;;9.51;89.55;101881.83;3356216;82;21022;-76
2022/11/11 21:21:20;;;;;;;23.15;16.35;;;;;;;9.51;89.55;101874.95;3350324;83;20967;-77
2022/11/11 21:26:30;;;;;;;22.15;15.65;;;;;;;9.53;89.52;101884.98;3413035;83;21046;-77
2022/11/11 21:31:42;;;;;;;19.67;16.97;;;;;;;9.54;89.56;101881.97;3330626;83;20988;-77
2022/11/11 21:36:53;;;;;;;21.90;16.77;;;;;;;9.55;89.56;101883.75;3373582;82;20994;-77
2022/11/11 21:42:03;;;;;;;18.98;15.35;;;;;;;9.56;89.52;101889.82;3397181;82;20956;-77
2022/11/11 21:47:12;;;;;;;22.42;17.20;;;;;;;9.58;89.57;101888.16;3398282;82;21556;-77
2022/11/11 21:52:22;;;;;;;19.92;17.50;;;;;;;9.58;89.55;101885.56;3375404;83;21112;-77
2022/11/11 21:57:31;;;;;;;25.10;18.37;;;;;;;9.60;89.61;101894.30;3431858;82;20963;-77
2022/11/11 22:02:40;;;;;;;21.35;16.40;;;;;;;9.61;89.54;101899.98;3346294;83;20990;-77
2022/11/11 22:07:50;;;;;;;24.52;17.25;;;;;;;9.62;89.56;101900.44;3398637;82;20951;-77
2022/11/11 22:13:00;;;;;;;23.47;15.80;;;;;;;9.63;89.60;101901.80;3389216;82;21553;-77
2022/11/11 22:18:09;;;;;;;19.90;16.60;;;;;;;9.63;89.59;101902.22;3361734;82;20960;-77
2022/11/11 22:23:19;;;;;;;23.40;15.80;;;;;;;9.63;89.64;101905.69;3423583;82;20967;-77
2022/11/11 22:28:29;;;;;;;21.02;14.63;;;;;;;9.64;89.63;101905.27;3416808;82;21529;-77
2022/11/11 22:33:41;;;;;;;22.27;16.32;;;;;;;9.65;89.67;101908.36;3394508;82;20952;-77
2022/11/11 22:38:51;;;;;;;24.43;16.57;;;;;;;9.66;89.68;101908.84;3331736;83;20983;-77
2022/11/11 22:44:04;;;;;;;24.35;17.30;;;;;;;9.66;89.64;101916.63;3293804;83;20984;-77
2022/11/11 22:49:13;;;;;;;19.05;15.68;;;;;;;9.66;89.72;101908.84;3324046;83;21014;-77
2022/11/11 22:54:23;;;;;;;22.58;16.85;;;;;;;9.67;89.77;101897.61;3417829;82;21636;-77
2022/11/11 22:59:32;;;;;;;21.65;15.23;;;;;;;9.67;89.81;101904.98;3358690;83;21279;-77
2022/11/11 23:04:41;;;;;;;21.70;17.75;;;;;;;9.67;89.77;101901.51;3414104;82;20995;-77
2022/11/11 23:09:51;;;;;;;22.02;15.85;;;;;;;9.67;89.84;101906.28;3378668;82;21536;-77
2022/11/11 23:15:01;;;;;;;21.93;15.98;;;;;;;9.68;89.90;101902.00;3361501;84;21485;-77
2022/11/11 23:20:11;;;;;;;25.92;15.90;;;;;;;9.67;89.95;101908.88;3380598;83;21050;-77
2022/11/11 23:25:20;;;;;;;20.35;16.40;;;;;;;9.68;89.96;101900.70;3357769;84;21500;-77
2022/11/11 23:30:30;;;;;;;19.42;15.05;;;;;;;9.69;89.98;101902.45;3380823;84;21296;-77
2022/11/11 23:35:39;;;;;;;17.95;14.90;;;;;;;9.69;90.03;101902.45;3431742;82;21473;-77
2022/11/11 23:40:49;;;;;;;21.48;14.85;;;;;;;9.70;90.00;101906.83;3382512;82;21051;-77
2022/11/11 23:45:59;;;;;;;19.95;14.05;;;;;;;9.70;89.93;101908.13;3295681;84;21422;-77
2022/11/11 23:51:09;;;;;;;23.62;15.55;;;;;;;9.70;89.98;101908.13;3311573;84;20995;-77
2022/11/11 23:56:18;;;;;;;21.20;15.00;;;;;;;9.69;89.94;101912.84;3323528;84;20984;-77
